Impacts METAR Board
IDs:

KPWG - Mc Gregor Executive, TX, US

Updated at: 0100 UTC 15 Aug 2020
Potential Impact None Slight Moderate High
Time 14/13Z 14/14Z 14/15Z 14/16Z 14/17Z 14/18Z 14/19Z 14/20Z 14/21Z 14/22Z 14/23Z 15/00Z 15/01Z
Temp81 85 91 95 99 101 104 104 107 106 106 103 99
Dewpt72 73 73 72 70 69 66 64 65 62 62 60 60
Altim29.93 29.94 29.94 29.94 29.93 29.91 29.89 29.87 29.84 29.82 29.80 29.80 29.81
VIS10 10 10 10 10 10 10 10 10 10 10 10 10
CIG-- -- -- -- -- -- -- -- -- -- -- -- --
CoverCLRCLRCLRCLRCLRCLRCLRCLRCLRCLRCLRCLRCLR
FltCatVFRVFRVFRVFRVFRVFRVFRVFRVFRVFRVFRVFRVFR
WX--------------------------
WDir200200210200210200200200190150150170160
WSpd7 9 9 12 13 7 10 7 11 12 10 16 11
WGst-- -- -- 16 17 18 15 16 -- 17 -- -- --
Raw hourly METARs
KPWG 141256Z AUTO 20007KT 10SM CLR 27/22 A2993 RMK AO2 SLP125 T02720222 $
KPWG 141356Z AUTO 20009KT 10SM CLR 29/23 A2994 RMK AO2 SLP128 T02940228 $
KPWG 141456Z AUTO 21009KT 10SM CLR 33/23 A2994 RMK AO2 SLP131 T03280228 51009 $
KPWG 141556Z AUTO 20012G16KT 10SM CLR 35/22 A2994 RMK AO2 SLP130 T03500222 $
KPWG 141656Z AUTO 21013G17KT 10SM CLR 37/21 A2993 RMK AO2 SLP126 T03720211 $
KPWG 141756Z AUTO 20007G18KT 160V240 10SM CLR 38/21 A2991 RMK AO2 SLP120 T03830206 10389 20256 58011 $
KPWG 141856Z AUTO 20010G15KT 170V240 10SM CLR 40/19 A2989 RMK AO2 SLP112 T04000189 $
KPWG 141956Z AUTO 20007G16KT 150V230 10SM CLR 40/18 A2987 RMK AO2 SLP104 T04000178 $
KPWG 142056Z AUTO 19011KT 10SM CLR 42/18 A2984 RMK AO2 SLP094 T04170183 58024 $
KPWG 142156Z AUTO 15012G17KT 10SM CLR 41/17 A2982 RMK AO2 SLP086 T04110167 $
KPWG 142256Z AUTO 15010KT 10SM CLR 41/17 A2980 RMK AO2 SLP083 T04110167 $
KPWG 142356Z AUTO 17016KT 10SM CLR 39/16 A2980 RMK AO2 SLP082 T03940156 10417 20383 56013 $
KPWG 150056Z AUTO 16011KT 10SM CLR 37/16 A2981 RMK AO2 SLP087 T03720156 $